createdAt,value
2022-09-05T00:00:18.579Z,7.50
2022-09-05T00:01:18.552Z,4.30
2022-09-05T00:02:18.541Z,4.50
2022-09-05T00:03:18.621Z,5.40
2022-09-05T00:04:25.088Z,5.50
2022-09-05T00:05:18.498Z,5.00
2022-09-05T00:06:18.479Z,4.70
2022-09-05T00:07:36.107Z,5.10
2022-09-05T00:08:18.458Z,5.30
2022-09-05T00:09:18.441Z,4.30
2022-09-05T00:10:18.428Z,5.90
2022-09-05T00:11:42.932Z,5.10
2022-09-05T00:12:18.399Z,5.50
2022-09-05T00:13:18.387Z,5.90
2022-09-05T00:14:53.702Z,4.40
2022-09-05T00:15:19.163Z,5.30
2022-09-05T00:16:18.416Z,4.40
2022-09-05T00:17:18.332Z,5.30
2022-09-05T00:21:29.189Z,6.90
2022-09-05T00:24:17.353Z,5.00
2022-09-05T00:24:22.657Z,5.10
2022-09-05T00:24:27.280Z,4.80
2022-09-05T00:24:30.242Z,4.70
2022-09-05T00:24:31.280Z,4.10
2022-09-05T00:24:32.022Z,4.80
2022-09-05T00:25:30.968Z,4.50
2022-09-05T00:26:18.213Z,6.20
2022-09-05T00:27:18.198Z,5.50
2022-09-05T00:28:25.821Z,4.30
2022-09-05T00:29:21.733Z,4.30
2022-09-05T00:31:51.647Z,6.10
2022-09-05T00:31:53.405Z,5.10
2022-09-05T00:32:18.150Z,5.90
2022-09-05T00:33:18.122Z,5.50
2022-09-05T00:34:18.098Z,4.40
2022-09-05T00:35:18.086Z,4.70
2022-09-05T00:36:18.073Z,4.70
2022-09-05T00:37:18.060Z,4.40
2022-09-05T00:38:18.043Z,4.50
2022-09-05T00:39:18.028Z,4.90
2022-09-05T00:40:19.171Z,5.70
2022-09-05T00:41:18.005Z,4.40
2022-09-05T00:42:17.992Z,5.00
2022-09-05T00:43:17.977Z,4.70
2022-09-05T00:44:17.966Z,4.70
2022-09-05T00:45:19.687Z,5.00
2022-09-05T00:46:17.980Z,4.70
2022-09-05T00:47:17.919Z,6.30
2022-09-05T00:48:17.908Z,4.90
2022-09-05T00:49:17.896Z,7.40
2022-09-05T00:50:17.884Z,5.90
2022-09-05T00:51:17.866Z,5.90
2022-09-05T00:52:17.853Z,6.20
2022-09-05T00:53:17.840Z,4.70
2022-09-05T00:54:17.823Z,5.20
2022-09-05T00:55:17.811Z,4.70
2022-09-05T00:56:17.795Z,5.20
2022-09-05T00:57:17.916Z,6.80
2022-09-05T00:58:17.775Z,5.50
2022-09-05T00:59:17.754Z,4.40
2022-09-05T01:00:18.394Z,5.80
2022-09-05T01:01:20.794Z,4.80
2022-09-05T01:02:17.851Z,5.40
2022-09-05T01:03:17.763Z,5.50
2022-09-05T01:04:17.685Z,5.40
2022-09-05T01:05:17.674Z,6.90
2022-09-05T01:06:17.660Z,5.80
2022-09-05T01:07:17.639Z,6.50
2022-09-05T01:08:17.631Z,5.60
2022-09-05T01:09:17.619Z,6.50
2022-09-05T01:10:17.603Z,4.70
2022-09-05T01:11:17.589Z,4.60
2022-09-05T01:12:17.573Z,4.90
2022-09-05T01:13:17.564Z,5.10
2022-09-05T01:14:17.548Z,5.50
2022-09-05T01:15:17.537Z,4.40
2022-09-05T01:16:17.602Z,4.50
2022-09-05T01:17:17.504Z,4.50
2022-09-05T01:18:17.493Z,5.90
2022-09-05T01:19:17.479Z,6.00
2022-09-05T01:20:18.979Z,4.80
2022-09-05T01:21:17.451Z,5.10
2022-09-05T01:22:17.440Z,5.40
2022-09-05T01:23:17.426Z,7.30
2022-09-05T01:24:17.407Z,5.30
2022-09-05T01:25:17.394Z,5.80
2022-09-05T01:26:17.381Z,6.10
2022-09-05T01:27:17.363Z,7.60
2022-09-05T01:29:13.364Z,6.00
2022-09-05T01:29:19.565Z,4.40
2022-09-05T01:30:17.323Z,4.60
2022-09-05T01:31:17.397Z,4.90
2022-09-05T01:32:17.291Z,5.70
2022-09-05T01:33:17.278Z,5.40
2022-09-05T01:34:17.267Z,4.70
2022-09-05T01:35:17.252Z,5.60
2022-09-05T01:36:17.241Z,5.80
2022-09-05T01:37:24.978Z,5.80
2022-09-05T01:38:17.215Z,5.60
2022-09-05T01:40:10.381Z,5.80
2022-09-05T01:40:17.339Z,5.80
2022-09-05T01:41:18.266Z,5.50
2022-09-05T01:42:17.153Z,4.60
2022-09-05T01:43:17.140Z,6.00
2022-09-05T01:44:17.129Z,7.60
2022-09-05T01:45:17.114Z,4.50
2022-09-05T01:46:17.204Z,5.10
2022-09-05T01:47:21.172Z,5.60
2022-09-05T01:48:17.070Z,7.60
2022-09-05T01:49:17.056Z,5.20
2022-09-05T01:50:17.046Z,5.70
2022-09-05T01:51:29.526Z,5.40
2022-09-05T01:52:17.013Z,9.70
2022-09-05T01:53:16.997Z,5.70
2022-09-05T01:54:28.302Z,5.90
2022-09-05T01:55:16.970Z,5.00
2022-09-05T01:56:16.958Z,6.30
2022-09-05T01:57:19.558Z,6.10
2022-09-05T01:58:16.929Z,6.60
2022-09-05T01:59:16.918Z,5.70
2022-09-05T02:00:16.902Z,6.80
2022-09-05T02:01:30.039Z,5.30
2022-09-05T02:02:17.002Z,5.60
2022-09-05T02:03:16.870Z,5.90
2022-09-05T02:04:16.842Z,6.20
2022-09-05T02:05:16.827Z,7.00
2022-09-05T02:06:16.814Z,5.10
2022-09-05T02:07:31.286Z,5.30
2022-09-05T02:08:16.783Z,5.30
2022-09-05T02:09:16.769Z,5.40
2022-09-05T02:10:16.765Z,5.20
2022-09-05T02:11:35.606Z,5.90
2022-09-05T02:12:16.728Z,5.20
2022-09-05T02:13:16.711Z,7.60
2022-09-05T02:14:24.316Z,5.30
2022-09-05T02:15:16.683Z,5.70
2022-09-05T02:16:16.718Z,5.30
2022-09-05T02:17:31.894Z,7.90
2022-09-05T02:18:16.641Z,6.60
2022-09-05T02:19:16.627Z,6.00
2022-09-05T02:20:23.560Z,5.30
2022-09-05T02:21:16.603Z,5.60
2022-09-05T02:22:16.588Z,6.70
2022-09-05T02:23:24.667Z,5.90
2022-09-05T02:24:16.561Z,5.70
2022-09-05T02:26:01.829Z,5.90
2022-09-05T02:26:16.529Z,5.10
2022-09-05T02:27:45.857Z,5.50
2022-09-05T02:28:16.501Z,5.00
2022-09-05T02:29:29.459Z,7.40
2022-09-05T02:30:16.471Z,6.00
2022-09-05T02:31:19.835Z,8.10
2022-09-05T02:32:16.444Z,6.00
2022-09-05T02:33:16.430Z,5.80
2022-09-05T02:34:16.417Z,7.00
2022-09-05T02:35:16.402Z,5.60
2022-09-05T02:36:16.385Z,5.30
2022-09-05T02:37:16.375Z,5.80
2022-09-05T02:40:44.221Z,5.50
2022-09-05T02:43:42.393Z,5.60
2022-09-05T02:45:03.993Z,7.30
2022-09-05T02:45:13.249Z,6.20
2022-09-05T02:45:19.503Z,5.70
2022-09-05T02:45:20.532Z,6.90
2022-09-05T02:45:21.088Z,5.90
2022-09-05T02:45:26.798Z,6.90
2022-09-05T02:46:16.311Z,7.00
2022-09-05T02:47:16.225Z,6.50
2022-09-05T02:48:16.298Z,7.20
2022-09-05T02:49:44.524Z,6.10
2022-09-05T02:52:38.150Z,6.20
2022-09-05T02:57:24.008Z,6.40
2022-09-05T02:57:26.343Z,5.20
2022-09-05T02:57:27.752Z,6.30
2022-09-05T02:57:33.416Z,6.20
2022-09-05T02:57:34.881Z,7.30
2022-09-05T02:57:36.530Z,6.10
2022-09-05T02:57:46.254Z,5.50
2022-09-05T02:58:16.449Z,5.00
2022-09-05T02:59:16.067Z,6.10
2022-09-05T03:00:16.041Z,7.50
2022-09-05T03:01:16.110Z,6.90
2022-09-05T03:02:26.043Z,5.60
2022-09-05T03:03:16.065Z,5.60
2022-09-05T03:04:15.982Z,5.80
2022-09-05T03:05:15.966Z,5.80
2022-09-05T03:06:15.954Z,5.30
2022-09-05T03:07:15.939Z,4.90
2022-09-05T03:08:15.928Z,6.10
2022-09-05T03:09:16.933Z,6.10
2022-09-05T03:10:15.898Z,5.50
2022-09-05T03:11:15.876Z,7.60
2022-09-05T03:12:29.427Z,7.20
2022-09-05T03:13:15.848Z,7.00
2022-09-05T03:14:15.843Z,6.50
2022-09-05T03:15:22.608Z,5.90
2022-09-05T03:16:15.850Z,5.40
2022-09-05T03:17:15.791Z,7.30
2022-09-05T03:18:31.411Z,5.80
2022-09-05T03:19:15.762Z,7.90
2022-09-05T03:20:15.745Z,5.80
2022-09-05T03:21:15.732Z,6.00
2022-09-05T03:22:15.720Z,7.10
2022-09-05T03:23:15.703Z,7.30
2022-09-05T03:24:15.695Z,7.80
2022-09-05T03:25:15.675Z,6.20
2022-09-05T03:26:15.661Z,6.80
2022-09-05T03:27:15.645Z,6.00
2022-09-05T03:28:15.631Z,5.90
2022-09-05T03:29:15.617Z,6.20
2022-09-05T03:30:15.607Z,6.20
2022-09-05T03:31:22.515Z,6.70
2022-09-05T03:32:15.571Z,7.50
2022-09-05T03:33:15.556Z,6.50
2022-09-05T03:34:15.544Z,6.00
2022-09-05T03:35:15.531Z,7.20
2022-09-05T03:36:15.514Z,6.10
2022-09-05T03:37:15.499Z,6.50
2022-09-05T03:38:15.486Z,6.30
2022-09-05T03:39:15.475Z,5.80
2022-09-05T03:40:16.815Z,5.70
2022-09-05T03:41:15.441Z,6.30
2022-09-05T03:42:15.430Z,7.30
2022-09-05T03:43:15.419Z,6.20
2022-09-05T03:44:15.402Z,5.60
2022-09-05T03:45:15.386Z,6.50
2022-09-05T03:46:15.429Z,8.10
2022-09-05T03:47:15.355Z,6.20
2022-09-05T03:48:27.752Z,7.90
2022-09-05T03:50:25.898Z,8.30
2022-09-05T03:54:53.079Z,14.30
2022-09-05T03:57:04.924Z,13.30
2022-09-05T03:57:06.421Z,15.70
2022-09-05T03:57:15.590Z,10.10
2022-09-05T03:57:15.960Z,9.20
2022-09-05T03:57:24.721Z,6.60
2022-09-05T03:57:28.228Z,7.70
2022-09-05T03:57:37.002Z,6.70
2022-09-05T03:58:31.881Z,6.70
2022-09-05T03:59:15.175Z,6.60
2022-09-05T04:00:15.164Z,6.70
2022-09-05T04:04:03.656Z,8.60
2022-09-05T04:08:06.182Z,6.70
2022-09-05T04:08:08.280Z,5.30
2022-09-05T04:08:11.632Z,6.30
2022-09-05T04:08:16.627Z,6.80
2022-09-05T04:08:24.099Z,7.00
2022-09-05T04:08:24.291Z,7.80
2022-09-05T04:08:34.201Z,6.50
2022-09-05T04:09:22.652Z,6.80
2022-09-05T04:10:15.118Z,6.30
2022-09-05T04:11:14.999Z,7.50
2022-09-05T04:12:14.983Z,6.40
2022-09-05T04:13:14.972Z,6.90
2022-09-05T04:14:14.954Z,6.30
2022-09-05T04:15:14.937Z,6.50
2022-09-05T04:16:14.989Z,6.10
2022-09-05T04:17:14.909Z,6.90
2022-09-05T04:18:14.898Z,8.70
2022-09-05T04:19:14.883Z,7.30
2022-09-05T04:20:14.865Z,7.10
2022-09-05T04:21:14.848Z,6.70
2022-09-05T04:22:14.835Z,7.60
2022-09-05T04:23:14.822Z,6.90
2022-09-05T04:24:14.806Z,8.80
2022-09-05T04:25:14.788Z,6.80
2022-09-05T04:26:14.783Z,7.20
2022-09-05T04:27:14.766Z,6.40
2022-09-05T04:28:14.746Z,6.50
2022-09-05T04:29:14.734Z,8.60
2022-09-05T04:30:38.599Z,6.90
2022-09-05T04:31:14.704Z,7.30
2022-09-05T04:32:19.246Z,9.90
2022-09-05T04:33:14.671Z,8.10
2022-09-05T04:34:14.657Z,6.80
2022-09-05T04:35:14.642Z,8.10
2022-09-05T04:36:17.737Z,8.00
2022-09-05T04:37:14.614Z,7.20
2022-09-05T04:38:14.605Z,8.30
2022-09-05T04:39:14.584Z,8.00
2022-09-05T04:40:14.570Z,8.80
2022-09-05T04:41:14.552Z,8.00
2022-09-05T04:42:14.545Z,8.00
2022-09-05T04:43:14.525Z,6.90
2022-09-05T04:44:14.509Z,7.70
2022-09-05T04:45:17.515Z,7.80
2022-09-05T04:46:18.841Z,8.40
2022-09-05T04:47:15.690Z,10.10
2022-09-05T04:48:15.757Z,7.80
2022-09-05T04:49:14.439Z,8.70
2022-09-05T04:50:14.422Z,7.30
2022-09-05T04:51:14.403Z,8.40
2022-09-05T04:52:18.721Z,7.90
2022-09-05T04:53:14.371Z,7.40
2022-09-05T04:54:14.369Z,9.30
2022-09-05T04:55:14.341Z,6.40
2022-09-05T04:56:14.331Z,7.90
2022-09-05T04:57:14.736Z,8.00
2022-09-05T04:58:14.296Z,9.10
2022-09-05T05:03:29.914Z,8.20
2022-09-05T05:03:39.202Z,10.00
2022-09-05T05:06:05.905Z,7.40
2022-09-05T05:06:09.241Z,7.90
2022-09-05T05:06:12.749Z,10.20
2022-09-05T05:06:13.504Z,7.60
2022-09-05T05:06:15.490Z,8.20
2022-09-05T05:06:38.217Z,9.10
2022-09-05T05:07:14.310Z,10.00
2022-09-05T05:08:14.244Z,10.10
2022-09-05T05:09:14.135Z,8.30
2022-09-05T05:11:18.587Z,10.40
2022-09-05T05:17:56.011Z,9.30
2022-09-05T05:17:57.231Z,8.70
2022-09-05T05:17:58.022Z,10.20
2022-09-05T05:18:00.194Z,7.70
2022-09-05T05:18:07.632Z,10.90
2022-09-05T05:18:09.960Z,9.90
2022-09-05T05:18:14.831Z,10.20
2022-09-05T05:18:42.274Z,12.00
2022-09-05T05:19:20.469Z,9.50
2022-09-05T05:20:41.458Z,9.20
2022-09-05T05:21:13.953Z,8.20
2022-09-05T05:22:13.943Z,9.90
2022-09-05T05:23:13.924Z,9.80
2022-09-05T05:24:13.913Z,9.80
2022-09-05T05:25:13.897Z,14.90
2022-09-05T05:26:13.879Z,15.50
2022-09-05T05:27:13.862Z,9.40
2022-09-05T05:28:24.887Z,8.30
2022-09-05T05:29:18.805Z,10.40
2022-09-05T05:30:13.824Z,10.10
2022-09-05T05:31:13.887Z,8.50
2022-09-05T05:32:13.793Z,13.50
2022-09-05T05:33:13.773Z,9.00
2022-09-05T05:34:24.599Z,10.40
2022-09-05T05:35:13.747Z,9.50
2022-09-05T05:36:13.734Z,10.80
2022-09-05T05:37:13.716Z,11.30
2022-09-05T05:38:13.707Z,10.80
2022-09-05T05:39:13.695Z,9.00
2022-09-05T05:40:13.733Z,11.80
2022-09-05T05:41:13.655Z,11.30
2022-09-05T05:42:20.930Z,11.90
2022-09-05T05:43:13.627Z,11.80
2022-09-05T05:44:13.615Z,11.50
2022-09-05T05:45:13.598Z,9.30
2022-09-05T05:46:13.675Z,9.50
2022-09-05T05:47:13.569Z,8.90
2022-09-05T05:48:13.553Z,9.70
2022-09-05T05:49:13.538Z,10.60
2022-09-05T05:50:13.524Z,10.30
2022-09-05T05:51:13.504Z,12.40
2022-09-05T05:52:13.504Z,10.00
2022-09-05T05:53:13.480Z,11.30
2022-09-05T05:54:13.465Z,11.00
2022-09-05T05:55:50.510Z,9.80
2022-09-05T05:56:13.433Z,11.00
2022-09-05T05:57:15.221Z,12.20
2022-09-05T05:58:13.416Z,15.10
2022-09-05T05:59:13.388Z,11.00
2022-09-05T06:00:14.810Z,15.60
2022-09-05T06:01:28.836Z,11.90
2022-09-05T06:02:13.454Z,10.60
2022-09-05T06:03:26.417Z,13.20
2022-09-05T06:04:13.322Z,13.80
2022-09-05T06:05:13.304Z,10.30
2022-09-05T06:06:13.289Z,10.40
2022-09-05T06:07:13.271Z,11.00
2022-09-05T06:12:05.610Z,13.00
2022-09-05T06:14:50.873Z,12.20
2022-09-05T06:14:52.102Z,9.50
2022-09-05T06:15:00.008Z,13.40
2022-09-05T06:15:02.367Z,13.20
2022-09-05T06:15:05.202Z,14.00
2022-09-05T06:15:06.635Z,14.60
2022-09-05T06:15:17.764Z,9.10
2022-09-05T06:16:13.215Z,9.40
2022-09-05T06:17:13.126Z,10.00
2022-09-05T06:18:13.110Z,10.50
2022-09-05T06:19:13.099Z,11.00
2022-09-05T06:21:12.776Z,11.30
2022-09-05T06:22:06.423Z,10.90
2022-09-05T06:22:15.911Z,12.00
2022-09-05T06:23:36.604Z,9.00
2022-09-05T06:24:13.023Z,11.30
2022-09-05T06:25:17.102Z,11.40
2022-09-05T06:26:12.999Z,10.00
2022-09-05T06:27:12.981Z,11.50
2022-09-05T06:28:18.395Z,9.10
2022-09-05T06:29:12.957Z,10.00
2022-09-05T06:30:12.938Z,13.30
2022-09-05T06:31:29.146Z,11.50
2022-09-05T06:32:12.952Z,14.30
2022-09-05T06:33:12.902Z,16.10
2022-09-05T06:34:30.907Z,10.40
2022-09-05T06:35:12.866Z,14.40
2022-09-05T06:36:12.860Z,13.90
2022-09-05T06:37:12.838Z,13.00
2022-09-05T06:38:12.828Z,10.30
2022-09-05T06:39:12.812Z,13.00
2022-09-05T06:40:12.807Z,10.80
2022-09-05T06:41:12.786Z,13.60
2022-09-05T06:42:28.517Z,11.80
2022-09-05T06:43:12.757Z,9.50
2022-09-05T06:44:12.745Z,14.50
2022-09-05T06:45:27.428Z,9.40
2022-09-05T06:46:12.759Z,12.20
2022-09-05T06:47:34.200Z,10.50
2022-09-05T06:48:13.605Z,13.20
2022-09-05T06:49:30.917Z,11.70
2022-09-05T06:50:23.985Z,10.40
2022-09-05T06:51:12.653Z,9.20
2022-09-05T06:52:29.027Z,12.30
2022-09-05T06:53:30.125Z,14.30
2022-09-05T06:54:12.610Z,10.90
2022-09-05T06:55:12.595Z,11.90
2022-09-05T06:56:12.743Z,9.30
2022-09-05T06:57:12.569Z,11.40
2022-09-05T06:58:12.561Z,9.10
2022-09-05T06:59:12.546Z,12.60
2022-09-05T07:00:17.561Z,11.60
2022-09-05T07:01:12.688Z,11.60
2022-09-05T07:02:12.592Z,10.30
2022-09-05T07:03:13.482Z,9.50
2022-09-05T07:05:24.817Z,9.50
2022-09-05T07:05:37.236Z,10.30
2022-09-05T07:06:19.557Z,8.50
2022-09-05T07:07:12.451Z,10.40
2022-09-05T07:08:36.526Z,10.10
2022-09-05T07:09:12.434Z,8.30
2022-09-05T07:10:34.971Z,12.30
2022-09-05T07:11:15.860Z,7.50
2022-09-05T07:12:12.404Z,9.30
2022-09-05T07:13:12.397Z,9.90
2022-09-05T07:14:12.390Z,9.40
2022-09-05T07:15:12.379Z,11.20
2022-09-05T07:16:12.414Z,7.80
2022-09-05T07:17:12.384Z,7.60
2022-09-05T07:18:12.363Z,7.80
2022-09-05T07:19:12.349Z,11.90
2022-09-05T07:20:12.347Z,6.80
2022-09-05T07:21:17.909Z,9.50
2022-09-05T07:22:29.352Z,7.80
2022-09-05T07:23:20.344Z,8.00
2022-09-05T07:24:12.941Z,8.90
2022-09-05T07:25:18.031Z,9.60
2022-09-05T07:26:13.218Z,6.70
2022-09-05T07:27:12.713Z,7.40
2022-09-05T07:28:28.364Z,7.20
2022-09-05T07:29:12.302Z,9.20
2022-09-05T07:30:12.292Z,8.20
2022-09-05T07:31:12.327Z,6.90
2022-09-05T07:32:12.313Z,8.60
2022-09-05T07:33:12.278Z,7.80
2022-09-05T07:34:20.889Z,6.50
2022-09-05T07:35:12.276Z,6.00
2022-09-05T07:36:12.275Z,6.30
2022-09-05T07:37:15.114Z,7.30
2022-09-05T07:38:12.266Z,5.60
2022-09-05T07:39:28.315Z,8.80
2022-09-05T07:40:25.943Z,7.10
2022-09-05T07:41:12.259Z,6.00
2022-09-05T07:42:12.261Z,7.10
2022-09-05T07:43:13.516Z,6.50
2022-09-05T07:44:12.550Z,6.00
2022-09-05T07:45:12.252Z,5.80
2022-09-05T07:46:12.348Z,6.90
2022-09-05T07:47:12.258Z,6.20
2022-09-05T07:48:12.256Z,8.10
2022-09-05T07:49:12.255Z,7.40
2022-09-05T07:51:00.701Z,6.10
2022-09-05T07:56:46.101Z,7.80
2022-09-05T07:56:46.628Z,5.30
2022-09-05T07:56:49.428Z,6.20
2022-09-05T07:56:55.564Z,6.10
2022-09-05T07:57:08.832Z,6.70
2022-09-05T07:57:09.637Z,7.40
2022-09-05T07:57:26.909Z,5.70
2022-09-05T07:58:12.267Z,5.60
2022-09-05T07:59:12.271Z,5.70
2022-09-05T08:00:25.872Z,5.70
2022-09-05T08:01:12.311Z,4.90
2022-09-05T08:02:12.276Z,4.90
2022-09-05T08:03:12.273Z,5.70
2022-09-05T08:04:12.286Z,4.90
2022-09-05T08:05:12.384Z,4.10
2022-09-05T08:06:12.284Z,4.60
2022-09-05T08:07:48.194Z,4.90
2022-09-05T08:08:12.286Z,5.00
2022-09-05T08:10:02.295Z,4.40
2022-09-05T08:10:15.576Z,9.20
2022-09-05T08:11:24.576Z,9.20
2022-09-05T08:12:16.161Z,5.60
2022-09-05T08:13:24.425Z,3.90
2022-09-05T08:14:44.565Z,6.60
2022-09-05T08:15:14.068Z,4.70
2022-09-05T08:16:13.912Z,7.00
2022-09-05T08:17:12.319Z,5.80
2022-09-05T08:18:12.330Z,4.10
2022-09-05T08:19:12.339Z,5.50
2022-09-05T08:20:12.335Z,3.40
2022-09-05T08:21:12.339Z,3.50
2022-09-05T08:22:12.348Z,3.80
2022-09-05T08:23:12.353Z,3.50
2022-09-05T08:24:13.934Z,3.40
2022-09-05T08:25:12.359Z,5.20
2022-09-05T08:26:12.375Z,4.60
2022-09-05T08:27:16.211Z,3.60
2022-09-05T08:28:12.373Z,3.40
2022-09-05T08:29:12.382Z,5.80
2022-09-05T08:30:27.335Z,4.70
2022-09-05T08:31:12.430Z,4.30
2022-09-05T08:32:12.395Z,4.00
2022-09-05T08:33:12.400Z,2.90
2022-09-05T08:34:12.405Z,3.00
2022-09-05T08:35:12.414Z,3.20
2022-09-05T08:36:12.421Z,4.20
2022-09-05T08:37:12.441Z,3.60
2022-09-05T08:38:12.426Z,4.90
2022-09-05T08:39:12.432Z,5.50
2022-09-05T08:40:12.577Z,4.10
2022-09-05T08:41:12.449Z,4.90
2022-09-05T08:42:12.451Z,4.50
2022-09-05T08:45:39.566Z,4.00
2022-09-05T08:46:37.791Z,4.00
2022-09-05T08:46:41.283Z,2.80
2022-09-05T08:46:44.900Z,4.60
2022-09-05T08:47:12.491Z,3.20
2022-09-05T08:48:12.479Z,3.40
2022-09-05T08:49:16.242Z,3.40
2022-09-05T08:50:12.486Z,4.90
2022-09-05T08:51:12.492Z,3.60
2022-09-05T08:52:12.495Z,4.60
2022-09-05T08:53:18.637Z,3.50
2022-09-05T08:54:12.509Z,4.80
2022-09-05T08:55:12.516Z,5.60
2022-09-05T08:56:12.541Z,3.60
2022-09-05T08:57:12.517Z,3.90
2022-09-05T08:58:12.523Z,3.80
2022-09-05T08:59:32.181Z,5.70
2022-09-05T09:00:20.869Z,4.60
2022-09-05T09:01:12.574Z,2.90
2022-09-05T09:02:45.543Z,3.80
2022-09-05T09:03:12.670Z,5.60
2022-09-05T09:04:12.544Z,4.30
2022-09-05T09:05:14.230Z,4.00
2022-09-05T09:06:15.742Z,2.90
2022-09-05T09:07:47.476Z,5.00
2022-09-05T09:08:12.570Z,3.40
2022-09-05T09:09:12.563Z,4.10
2022-09-05T09:10:12.561Z,4.10
2022-09-05T09:11:12.565Z,6.40
2022-09-05T09:12:12.571Z,4.50
2022-09-05T09:13:12.572Z,3.10
2022-09-05T09:14:18.789Z,5.10
2022-09-05T09:15:12.574Z,3.80
2022-09-05T09:16:12.639Z,5.30
2022-09-05T09:17:12.580Z,5.50
2022-09-05T09:18:12.589Z,4.50
2022-09-05T09:19:12.591Z,5.80
2022-09-05T09:20:12.595Z,4.50
2022-09-05T09:21:12.590Z,4.30
2022-09-05T09:22:12.598Z,5.60
2022-09-05T09:23:32.181Z,3.00
2022-09-05T09:24:12.603Z,3.70
2022-09-05T09:25:15.932Z,4.20
2022-09-05T09:26:12.610Z,5.40
2022-09-05T09:27:12.610Z,4.10
2022-09-05T09:28:50.078Z,4.90
2022-09-05T09:29:12.616Z,4.60
2022-09-05T09:30:12.625Z,3.40
2022-09-05T09:31:12.661Z,3.30
2022-09-05T09:32:12.618Z,4.00
2022-09-05T09:33:12.622Z,4.40
2022-09-05T09:34:12.626Z,6.10
2022-09-05T09:35:12.618Z,4.10
2022-09-05T09:36:12.624Z,5.50
2022-09-05T09:37:12.629Z,5.70
2022-09-05T09:38:12.623Z,9.90
2022-09-05T09:39:37.328Z,5.40
2022-09-05T09:40:12.753Z,4.80
2022-09-05T09:41:12.629Z,5.30
2022-09-05T09:42:32.872Z,4.10
2022-09-05T09:43:12.629Z,5.00
2022-09-05T09:44:12.623Z,4.60
2022-09-05T09:45:22.894Z,3.20
2022-09-05T09:46:12.670Z,3.40
2022-09-05T09:47:12.622Z,4.00
2022-09-05T09:48:12.623Z,4.60
2022-09-05T09:49:23.290Z,3.70
2022-09-05T09:50:12.626Z,4.10
2022-09-05T09:51:12.623Z,3.10
2022-09-05T09:52:20.674Z,8.30
2022-09-05T09:53:12.620Z,3.40
2022-09-05T09:54:12.622Z,3.70
2022-09-05T09:55:17.511Z,2.80
2022-09-05T09:56:12.617Z,3.00
2022-09-05T09:57:12.616Z,4.30
2022-09-05T09:58:12.619Z,3.00
2022-09-05T09:59:12.613Z,5.30
2022-09-05T10:00:12.662Z,4.00
2022-09-05T10:01:35.136Z,4.40
2022-09-05T10:03:40.955Z,3.20
2022-09-05T10:05:53.679Z,5.60
2022-09-05T10:08:59.782Z,3.40
2022-09-05T10:10:39.581Z,4.60
2022-09-05T10:10:53.206Z,4.50
2022-09-05T10:10:53.208Z,4.00
2022-09-05T10:10:53.991Z,3.00
2022-09-05T10:10:54.671Z,5.20
2022-09-05T10:11:00.444Z,4.60
2022-09-05T10:12:12.786Z,8.40
2022-09-05T10:13:12.584Z,3.40
2022-09-05T10:14:30.690Z,3.50
2022-09-05T10:15:31.687Z,2.80
2022-09-05T10:16:12.699Z,4.40
2022-09-05T10:17:12.572Z,4.30
2022-09-05T10:18:12.574Z,2.90
2022-09-05T10:19:12.566Z,3.70
2022-09-05T10:20:12.573Z,3.00
2022-09-05T10:21:16.994Z,4.30
2022-09-05T10:23:12.559Z,4.00
2022-09-05T10:24:12.552Z,3.50
2022-09-05T10:25:19.341Z,3.90
2022-09-05T10:26:12.550Z,4.50
2022-09-05T10:27:13.172Z,3.20
2022-09-05T10:28:12.542Z,4.00
2022-09-05T10:29:36.867Z,5.40
2022-09-05T10:30:12.535Z,3.60
2022-09-05T10:35:05.159Z,3.20
2022-09-05T10:35:08.236Z,2.90
2022-09-05T10:35:12.866Z,3.90
2022-09-05T10:35:14.710Z,2.70
2022-09-05T10:35:22.395Z,3.30
2022-09-05T10:36:17.218Z,3.30
2022-09-05T10:37:12.510Z,4.50
2022-09-05T10:38:12.513Z,4.30
2022-09-05T10:39:13.496Z,3.00
2022-09-05T10:40:12.495Z,3.40
2022-09-05T10:41:21.043Z,3.70
2022-09-05T10:42:12.493Z,2.90
2022-09-05T10:43:12.483Z,2.60
2022-09-05T10:44:12.482Z,2.90
2022-09-05T10:45:12.472Z,3.50
2022-09-05T10:46:16.962Z,5.10
2022-09-05T10:47:12.490Z,2.70
2022-09-05T10:48:13.674Z,4.50
2022-09-05T10:49:12.456Z,3.10
2022-09-05T10:50:12.456Z,3.50
2022-09-05T10:51:12.444Z,4.40
2022-09-05T10:52:19.277Z,3.60
2022-09-05T10:53:12.436Z,3.40
2022-09-05T10:54:12.438Z,3.40
2022-09-05T10:55:14.894Z,3.20
2022-09-05T10:56:12.422Z,2.60
2022-09-05T10:57:12.424Z,4.30
2022-09-05T10:58:12.418Z,3.40
2022-09-05T11:01:08.278Z,3.50
2022-09-05T11:02:19.543Z,3.50
2022-09-05T11:02:20.818Z,3.20
2022-09-05T11:02:27.305Z,2.30
2022-09-05T11:03:22.376Z,3.00
2022-09-05T11:04:12.519Z,3.50
2022-09-05T11:05:12.467Z,3.00
2022-09-05T11:06:12.377Z,3.00
2022-09-05T11:07:12.366Z,3.00
2022-09-05T11:08:12.364Z,3.30
2022-09-05T11:09:16.490Z,3.50
2022-09-05T11:10:12.355Z,4.40
2022-09-05T11:11:12.346Z,4.50
2022-09-05T11:12:12.339Z,4.90
2022-09-05T11:13:12.337Z,4.50
2022-09-05T11:14:26.165Z,3.20
2022-09-05T11:15:12.321Z,3.20
2022-09-05T11:16:13.656Z,3.40
2022-09-05T11:17:12.313Z,2.60
2022-09-05T11:18:12.310Z,3.10
2022-09-05T11:19:12.299Z,3.90
2022-09-05T11:20:16.309Z,3.70
2022-09-05T11:21:12.293Z,2.70
2022-09-05T11:22:23.893Z,3.20
2022-09-05T11:23:12.285Z,3.60
2022-09-05T11:24:12.270Z,3.00
2022-09-05T11:25:12.266Z,4.60
2022-09-05T11:26:12.266Z,3.00
2022-09-05T11:27:25.483Z,3.40
2022-09-05T11:28:12.252Z,3.40
2022-09-05T11:29:12.243Z,2.70
2022-09-05T11:30:20.286Z,4.50
2022-09-05T11:31:12.296Z,2.90
2022-09-05T11:39:03.743Z,2.70
2022-09-05T11:39:39.467Z,2.70
2022-09-05T11:39:48.798Z,2.90
2022-09-05T11:39:51.369Z,4.10
2022-09-05T11:39:52.702Z,3.60
2022-09-05T11:39:53.546Z,3.40
2022-09-05T11:39:59.595Z,3.10
2022-09-05T11:40:05.205Z,4.00
2022-09-05T11:40:31.020Z,5.10
2022-09-05T11:41:13.581Z,6.50
2022-09-05T11:42:12.190Z,2.90
2022-09-05T11:43:12.152Z,2.70
2022-09-05T11:44:25.971Z,2.70
2022-09-05T11:45:12.144Z,3.00
2022-09-05T11:46:12.187Z,3.80
2022-09-05T11:47:28.399Z,2.60
2022-09-05T11:48:12.122Z,3.50
2022-09-05T11:49:12.114Z,2.80
2022-09-05T11:50:12.110Z,3.70
2022-09-05T11:51:12.102Z,3.20
2022-09-05T11:52:12.099Z,5.60
2022-09-05T11:53:12.090Z,5.50
2022-09-05T11:54:12.099Z,3.90
2022-09-05T11:55:21.332Z,4.10
2022-09-05T11:56:12.074Z,3.40
2022-09-05T11:57:33.638Z,4.60
2022-09-05T11:58:44.044Z,4.00
2022-09-05T11:59:13.846Z,3.20
2022-09-05T12:00:31.292Z,3.30
2022-09-05T12:01:41.383Z,4.30
2022-09-05T12:02:23.385Z,2.90
2022-09-05T12:03:12.029Z,3.90
2022-09-05T12:04:13.105Z,2.60
2022-09-05T12:05:49.606Z,3.80
2022-09-05T12:06:12.061Z,3.50
2022-09-05T12:07:27.107Z,4.20
2022-09-05T12:08:11.996Z,3.40
2022-09-05T12:09:11.988Z,6.10
2022-09-05T12:10:45.814Z,9.70
2022-09-05T12:11:11.971Z,8.40
2022-09-05T12:13:11.969Z,3.10
2022-09-05T12:14:21.468Z,3.00
2022-09-05T12:15:11.950Z,3.20
2022-09-05T12:16:11.980Z,3.80
2022-09-05T12:17:16.981Z,7.90
2022-09-05T12:18:18.982Z,6.20
2022-09-05T12:19:19.255Z,6.50
2022-09-05T12:20:17.298Z,3.20
2022-09-05T12:21:17.466Z,6.10
2022-09-05T12:22:16.487Z,3.70
2022-09-05T12:23:27.618Z,2.90
2022-09-05T12:25:17.316Z,2.70
2022-09-05T12:25:27.111Z,3.70
2022-09-05T12:27:36.868Z,4.30
2022-09-05T12:27:43.214Z,3.80
2022-09-05T12:29:35.021Z,2.80
2022-09-05T12:30:13.902Z,3.80
2022-09-05T12:32:34.517Z,4.10
2022-09-05T12:34:34.225Z,2.80
2022-09-05T12:35:54.476Z,3.30
2022-09-05T12:36:05.829Z,3.60
2022-09-05T12:36:07.009Z,3.00
2022-09-05T12:40:38.343Z,3.60
2022-09-05T12:40:40.421Z,2.70
2022-09-05T12:40:54.519Z,3.10
2022-09-05T12:41:32.046Z,2.80
2022-09-05T12:41:34.144Z,3.50
2022-09-05T12:41:41.809Z,3.20
2022-09-05T12:41:44.589Z,3.40
2022-09-05T12:42:10.952Z,5.40
2022-09-05T12:42:21.807Z,4.50
2022-09-05T12:44:40.074Z,3.80
2022-09-05T12:44:41.794Z,2.90
2022-09-05T12:45:11.954Z,3.20
2022-09-05T12:46:22.318Z,2.90
2022-09-05T12:47:18.696Z,4.30
2022-09-05T12:48:11.753Z,3.50
2022-09-05T12:49:11.740Z,2.70
2022-09-05T12:50:14.229Z,2.90
2022-09-05T12:51:11.753Z,3.80
2022-09-05T12:52:11.722Z,4.10
2022-09-05T12:53:11.716Z,4.40
2022-09-05T12:54:24.541Z,2.70
2022-09-05T12:55:11.697Z,3.20
2022-09-05T12:57:15.235Z,3.00
2022-09-05T12:58:34.728Z,3.10
2022-09-05T13:02:58.599Z,3.90
2022-09-05T13:02:59.445Z,2.90
2022-09-05T13:03:09.167Z,3.70
2022-09-05T13:03:13.272Z,3.30
2022-09-05T13:03:13.739Z,4.50
2022-09-05T13:03:28.844Z,4.10
2022-09-05T13:04:18.556Z,3.30
2022-09-05T13:05:11.700Z,4.10
2022-09-05T13:06:25.099Z,3.30
2022-09-05T13:07:11.624Z,3.10
2022-09-05T13:08:11.620Z,5.20
2022-09-05T13:09:11.613Z,3.30
2022-09-05T13:11:03.745Z,3.90
2022-09-05T13:14:46.965Z,2.90
2022-09-05T13:14:47.604Z,3.20
2022-09-05T13:15:03.210Z,3.60
2022-09-05T13:15:06.074Z,3.30
2022-09-05T13:15:21.970Z,3.90
2022-09-05T13:16:15.495Z,6.00
2022-09-05T13:17:11.563Z,4.30